Gifford, WA

9:31 AM PDT on April 25, 2015 (GMT -0700)
KWAKETTL2 | | Change Station
CLOSE
Current Station
Personal Weather Station
Location: Kettle Falls, WA
Elevation: 1900 ft
Nearby Weather Stations

Elev 1900 ft 48.49 °N, 118.16 °W | Updated 18 minutes ago

Overcast
Overcast
44.8 °F
Feels Like 45 °F
N
2.0
Wind Variable Wind from NW
Gusts 4.0 mph

Today
High -- | Low -- °F
--% Chance of Precip.
Yesterday
High -- | Low -- °F
Precip. -- in
5:44 AM 7:57 PM
Waxing Crescent, 47% visible
Pressure 29.88 in
Visibility 10.0 miles
Clouds Mostly Cloudy 1000 ft
Mostly Cloudy 1600 ft
Overcast 3400 ft
Windchill 45 °F
Dew Point 26 °F
Humidity 47%
Rainfall 0.00 in
Snow Depth Not available.
UV 1 out of 12
Pollen 9.90 out of 12
Air Quality Not available.
Flu Activity Regional
SPECI KDEW 251624Z AUTO 19005KT 10SM -RA BKN010 BKN016 OVC034 04/03 A2988 RMK AO2 P0000 T00440033

More Conditions Fewer Conditions

Pressure 29.88 in
Visibility 10.0 miles
Clouds Mostly Cloudy 1000 ft
Mostly Cloudy 1600 ft
Overcast 3400 ft
Windchill 45 °F
Dew Point 26 °F
Humidity 47%
Rainfall 0.00 in
Snow Depth Not available.
UV 1 out of 12
Pollen 9.90 out of 12
Air Quality Not available.
Flu Activity Regional
SPECI KDEW 251624Z AUTO 19005KT 10SM -RA BKN010 BKN016 OVC034 04/03 A2988 RMK AO2 P0000 T00440033

More Conditions Fewer Conditions

10-Day Weather Forecast

Almanac

Astronomy

Apr. 25, 2015 Rise Set
Actual Time
Civil Twilight
Nautical Twilight
Astronomical Twilight
Moon
Length of Visible Light
Length of Day
Tomorrow will be .
, % of the Moon is Illuminated

Today's Extremes

State Highs State Lows

Community

WunderPhotos

Upload Photos

1,816,735 photos uploaded!

WunderBlogs® & News

Nearby

Air Quality

  Air Quality AQ Index Pollutant
Not available.

Snow Depth

Station Depth Elevation

Earthquake Activity

City Distance Mag. Time & Date
Minimum magnitude displayed is 2.5.

Coastal Water Temperatures

Place Temperature

Stations

Nearby Weather Stations

Station Location Temp. Windchill Dew Point Humidity Wind Precip. Elev Updated Type